sensor_id;sensor_type;location;lat;lon;timestamp;P1;durP1;ratioP1;P2;durP2;ratioP2
59486;SDS011;45298;54.918;73.504;2023-07-20T00:00:49;6.50;;;5.75;;
59486;SDS011;45298;54.918;73.504;2023-07-20T00:03:21;8.95;;;5.78;;
59486;SDS011;45298;54.918;73.504;2023-07-20T00:05:53;9.27;;;6.40;;
59486;SDS011;45298;54.918;73.504;2023-07-20T00:08:22;11.15;;;7.00;;
59486;SDS011;45298;54.918;73.504;2023-07-20T00:10:51;13.45;;;7.28;;
59486;SDS011;45298;54.918;73.504;2023-07-20T00:13:20;12.15;;;7.57;;
59486;SDS011;45298;54.918;73.504;2023-07-20T00:15:49;11.60;;;8.15;;
59486;SDS011;45298;54.918;73.504;2023-07-20T00:18:17;13.32;;;8.10;;
59486;SDS011;45298;54.918;73.504;2023-07-20T00:20:49;13.80;;;8.90;;
59486;SDS011;45298;54.918;73.504;2023-07-20T00:23:18;13.45;;;8.90;;
59486;SDS011;45298;54.918;73.504;2023-07-20T00:25:50;14.95;;;8.65;;
59486;SDS011;45298;54.918;73.504;2023-07-20T00:28:20;13.23;;;9.07;;
59486;SDS011;45298;54.918;73.504;2023-07-20T00:30:49;13.50;;;8.15;;
59486;SDS011;45298;54.918;73.504;2023-07-20T00:33:18;13.48;;;8.73;;
59486;SDS011;45298;54.918;73.504;2023-07-20T00:35:46;14.45;;;9.23;;
59486;SDS011;45298;54.918;73.504;2023-07-20T00:38:16;10.70;;;8.13;;
59486;SDS011;45298;54.918;73.504;2023-07-20T00:40:45;12.38;;;9.93;;
59486;SDS011;45298;54.918;73.504;2023-07-20T00:43:13;11.02;;;7.95;;
59486;SDS011;45298;54.918;73.504;2023-07-20T00:45:43;14.15;;;7.75;;
59486;SDS011;45298;54.918;73.504;2023-07-20T00:48:13;15.73;;;8.48;;
59486;SDS011;45298;54.918;73.504;2023-07-20T00:50:43;42.38;;;9.05;;
59486;SDS011;45298;54.918;73.504;2023-07-20T00:53:13;37.00;;;9.80;;
59486;SDS011;45298;54.918;73.504;2023-07-20T00:55:42;27.85;;;8.65;;
59486;SDS011;45298;54.918;73.504;2023-07-20T00:58:12;19.20;;;7.88;;
59486;SDS011;45298;54.918;73.504;2023-07-20T01:00:41;13.50;;;7.25;;
59486;SDS011;45298;54.918;73.504;2023-07-20T01:03:10;11.00;;;6.90;;
59486;SDS011;45298;54.918;73.504;2023-07-20T01:14:20;9.18;;;6.20;;
59486;SDS011;45298;54.918;73.504;2023-07-20T01:16:51;11.95;;;6.57;;
59486;SDS011;45298;54.918;73.504;2023-07-20T01:19:23;12.07;;;6.88;;
59486;SDS011;45298;54.918;73.504;2023-07-20T01:27:53;10.82;;;6.50;;
59486;SDS011;45298;54.918;73.504;2023-07-20T01:33:42;9.82;;;6.80;;
59486;SDS011;45298;54.918;73.504;2023-07-20T01:36:14;10.73;;;6.57;;
59486;SDS011;45298;54.918;73.504;2023-07-20T01:38:46;13.93;;;6.45;;
59486;SDS011;45298;54.918;73.504;2023-07-20T01:41:16;8.20;;;6.03;;
59486;SDS011;45298;54.918;73.504;2023-07-20T01:43:46;11.82;;;6.25;;
59486;SDS011;45298;54.918;73.504;2023-07-20T01:46:15;14.00;;;6.30;;
59486;SDS011;45298;54.918;73.504;2023-07-20T01:48:44;11.43;;;6.28;;
59486;SDS011;45298;54.918;73.504;2023-07-20T01:51:14;12.90;;;6.53;;
59486;SDS011;45298;54.918;73.504;2023-07-20T01:53:43;9.30;;;6.35;;
59486;SDS011;45298;54.918;73.504;2023-07-20T01:56:14;16.02;;;6.50;;
59486;SDS011;45298;54.918;73.504;2023-07-20T01:58:43;9.95;;;6.10;;
59486;SDS011;45298;54.918;73.504;2023-07-20T02:01:12;12.93;;;7.93;;
59486;SDS011;45298;54.918;73.504;2023-07-20T02:03:41;10.35;;;5.72;;
59486;SDS011;45298;54.918;73.504;2023-07-20T02:06:10;10.18;;;6.40;;
59486;SDS011;45298;54.918;73.504;2023-07-20T02:08:39;8.57;;;5.80;;
59486;SDS011;45298;54.918;73.504;2023-07-20T02:11:08;12.13;;;6.50;;
59486;SDS011;45298;54.918;73.504;2023-07-20T02:13:38;11.13;;;7.10;;
59486;SDS011;45298;54.918;73.504;2023-07-20T02:16:07;11.52;;;8.50;;
59486;SDS011;45298;54.918;73.504;2023-07-20T02:18:36;11.27;;;6.82;;
59486;SDS011;45298;54.918;73.504;2023-07-20T02:21:07;11.65;;;6.53;;
59486;SDS011;45298;54.918;73.504;2023-07-20T02:23:36;10.57;;;5.85;;
59486;SDS011;45298;54.918;73.504;2023-07-20T02:26:07;11.00;;;6.30;;
59486;SDS011;45298;54.918;73.504;2023-07-20T02:28:36;8.82;;;5.22;;
59486;SDS011;45298;54.918;73.504;2023-07-20T02:31:05;8.57;;;5.63;;
59486;SDS011;45298;54.918;73.504;2023-07-20T02:33:34;8.32;;;5.68;;
59486;SDS011;45298;54.918;73.504;2023-07-20T02:36:03;11.05;;;5.30;;
59486;SDS011;45298;54.918;73.504;2023-07-20T02:38:32;17.58;;;6.88;;
59486;SDS011;45298;54.918;73.504;2023-07-20T02:41:01;11.63;;;7.20;;
59486;SDS011;45298;54.918;73.504;2023-07-20T02:43:30;11.55;;;5.78;;
59486;SDS011;45298;54.918;73.504;2023-07-20T02:45:59;15.23;;;7.80;;
59486;SDS011;45298;54.918;73.504;2023-07-20T02:48:28;20.83;;;10.23;;
59486;SDS011;45298;54.918;73.504;2023-07-20T02:50:58;15.05;;;7.85;;
59486;SDS011;45298;54.918;73.504;2023-07-20T02:53:26;10.52;;;5.65;;
59486;SDS011;45298;54.918;73.504;2023-07-20T02:55:55;15.20;;;7.55;;
59486;SDS011;45298;54.918;73.504;2023-07-20T02:58:24;13.00;;;6.22;;
59486;SDS011;45298;54.918;73.504;2023-07-20T03:00:53;10.15;;;4.70;;
59486;SDS011;45298;54.918;73.504;2023-07-20T03:03:22;6.40;;;4.45;;
59486;SDS011;45298;54.918;73.504;2023-07-20T03:05:51;9.10;;;4.70;;
59486;SDS011;45298;54.918;73.504;2023-07-20T03:08:22;9.90;;;4.70;;
59486;SDS011;45298;54.918;73.504;2023-07-20T03:10:52;9.82;;;5.07;;
59486;SDS011;45298;54.918;73.504;2023-07-20T03:13:21;6.45;;;4.43;;
59486;SDS011;45298;54.918;73.504;2023-07-20T03:15:53;7.72;;;4.30;;
59486;SDS011;45298;54.918;73.504;2023-07-20T03:18:22;9.00;;;4.20;;
59486;SDS011;45298;54.918;73.504;2023-07-20T03:20:51;8.68;;;3.88;;
59486;SDS011;45298;54.918;73.504;2023-07-20T03:23:20;8.65;;;4.20;;
59486;SDS011;45298;54.918;73.504;2023-07-20T03:25:49;7.50;;;4.10;;
59486;SDS011;45298;54.918;73.504;2023-07-20T03:28:18;8.90;;;3.60;;
59486;SDS011;45298;54.918;73.504;2023-07-20T03:30:52;7.65;;;3.95;;
59486;SDS011;45298;54.918;73.504;2023-07-20T03:33:27;6.75;;;3.70;;
59486;SDS011;45298;54.918;73.504;2023-07-20T03:35:58;10.60;;;3.70;;
59486;SDS011;45298;54.918;73.504;2023-07-20T03:38:28;7.35;;;3.53;;
59486;SDS011;45298;54.918;73.504;2023-07-20T03:40:58;8.02;;;3.65;;
59486;SDS011;45298;54.918;73.504;2023-07-20T03:43:28;11.68;;;3.50;;
59486;SDS011;45298;54.918;73.504;2023-07-20T03:45:57;7.43;;;3.75;;
59486;SDS011;45298;54.918;73.504;2023-07-20T03:48:28;10.65;;;4.30;;
59486;SDS011;45298;54.918;73.504;2023-07-20T03:50:57;8.95;;;4.40;;
59486;SDS011;45298;54.918;73.504;2023-07-20T03:53:26;10.02;;;4.20;;
59486;SDS011;45298;54.918;73.504;2023-07-20T03:55:55;6.97;;;4.03;;
59486;SDS011;45298;54.918;73.504;2023-07-20T03:58:24;7.85;;;3.90;;
59486;SDS011;45298;54.918;73.504;2023-07-20T04:00:53;13.07;;;4.18;;
59486;SDS011;45298;54.918;73.504;2023-07-20T04:03:23;10.43;;;4.13;;
59486;SDS011;45298;54.918;73.504;2023-07-20T04:05:54;10.70;;;4.10;;
59486;SDS011;45298;54.918;73.504;2023-07-20T04:08:23;7.70;;;3.90;;
59486;SDS011;45298;54.918;73.504;2023-07-20T04:10:53;10.48;;;3.80;;
59486;SDS011;45298;54.918;73.504;2023-07-20T04:13:22;8.90;;;3.40;;
59486;SDS011;45298;54.918;73.504;2023-07-20T04:15:51;6.07;;;3.00;;
59486;SDS011;45298;54.918;73.504;2023-07-20T04:18:20;5.20;;;2.80;;
59486;SDS011;45298;54.918;73.504;2023-07-20T04:20:51;5.07;;;2.70;;
59486;SDS011;45298;54.918;73.504;2023-07-20T04:23:20;6.32;;;2.60;;
59486;SDS011;45298;54.918;73.504;2023-07-20T04:25:50;5.03;;;2.75;;
59486;SDS011;45298;54.918;73.504;2023-07-20T04:28:20;10.98;;;2.90;;
59486;SDS011;45298;54.918;73.504;2023-07-20T04:30:49;5.10;;;2.75;;
59486;SDS011;45298;54.918;73.504;2023-07-20T04:33:19;6.63;;;2.30;;
59486;SDS011;45298;54.918;73.504;2023-07-20T04:35:52;5.85;;;2.13;;
59486;SDS011;45298;54.918;73.504;2023-07-20T04:38:40;6.57;;;2.08;;
59486;SDS011;45298;54.918;73.504;2023-07-20T04:41:13;3.15;;;2.10;;
59486;SDS011;45298;54.918;73.504;2023-07-20T04:43:45;3.13;;;2.00;;
59486;SDS011;45298;54.918;73.504;2023-07-20T04:46:22;3.35;;;1.85;;
59486;SDS011;45298;54.918;73.504;2023-07-20T04:48:52;4.63;;;2.05;;
59486;SDS011;45298;54.918;73.504;2023-07-20T04:51:23;3.42;;;1.90;;
59486;SDS011;45298;54.918;73.504;2023-07-20T04:53:54;3.08;;;1.90;;
59486;SDS011;45298;54.918;73.504;2023-07-20T04:56:24;4.22;;;1.92;;
59486;SDS011;45298;54.918;73.504;2023-07-20T04:58:55;8.65;;;2.00;;
59486;SDS011;45298;54.918;73.504;2023-07-20T05:01:24;2.63;;;2.00;;
59486;SDS011;45298;54.918;73.504;2023-07-20T05:03:54;4.03;;;2.10;;
59486;SDS011;45298;54.918;73.504;2023-07-20T05:06:23;4.47;;;2.03;;
59486;SDS011;45298;54.918;73.504;2023-07-20T05:08:52;4.78;;;1.90;;
59486;SDS011;45298;54.918;73.504;2023-07-20T05:11:24;5.25;;;2.00;;
59486;SDS011;45298;54.918;73.504;2023-07-20T05:13:53;3.00;;;1.45;;
59486;SDS011;45298;54.918;73.504;2023-07-20T05:16:22;4.43;;;1.77;;
59486;SDS011;45298;54.918;73.504;2023-07-20T05:18:53;2.85;;;1.67;;
59486;SDS011;45298;54.918;73.504;2023-07-20T05:21:22;2.38;;;1.40;;
59486;SDS011;45298;54.918;73.504;2023-07-20T05:23:51;2.63;;;1.40;;
59486;SDS011;45298;54.918;73.504;2023-07-20T05:26:20;10.23;;;1.50;;
59486;SDS011;45298;54.918;73.504;2023-07-20T05:28:50;5.35;;;1.73;;
59486;SDS011;45298;54.918;73.504;2023-07-20T05:31:21;41.25;;;3.13;;
59486;SDS011;45298;54.918;73.504;2023-07-20T05:33:51;2.95;;;1.30;;
59486;SDS011;45298;54.918;73.504;2023-07-20T05:36:20;3.08;;;1.40;;
59486;SDS011;45298;54.918;73.504;2023-07-20T05:38:49;8.00;;;1.55;;
59486;SDS011;45298;54.918;73.504;2023-07-20T05:41:18;3.38;;;1.48;;
59486;SDS011;45298;54.918;73.504;2023-07-20T05:43:48;7.07;;;1.67;;
59486;SDS011;45298;54.918;73.504;2023-07-20T05:46:16;6.20;;;2.20;;
59486;SDS011;45298;54.918;73.504;2023-07-20T05:48:45;5.55;;;1.73;;
59486;SDS011;45298;54.918;73.504;2023-07-20T05:51:14;6.30;;;1.77;;
59486;SDS011;45298;54.918;73.504;2023-07-20T05:53:43;6.50;;;1.42;;
59486;SDS011;45298;54.918;73.504;2023-07-20T05:56:15;4.55;;;1.70;;
59486;SDS011;45298;54.918;73.504;2023-07-20T05:58:45;6.85;;;1.88;;
59486;SDS011;45298;54.918;73.504;2023-07-20T06:01:14;2.42;;;1.50;;
59486;SDS011;45298;54.918;73.504;2023-07-20T06:03:43;3.85;;;1.65;;
59486;SDS011;45298;54.918;73.504;2023-07-20T06:06:12;2.83;;;1.23;;
59486;SDS011;45298;54.918;73.504;2023-07-20T06:08:41;4.95;;;1.75;;
59486;SDS011;45298;54.918;73.504;2023-07-20T06:11:10;3.88;;;1.50;;
59486;SDS011;45298;54.918;73.504;2023-07-20T06:13:41;10.35;;;2.00;;
59486;SDS011;45298;54.918;73.504;2023-07-20T06:16:11;7.30;;;2.28;;
59486;SDS011;45298;54.918;73.504;2023-07-20T06:18:40;3.90;;;1.70;;
59486;SDS011;45298;54.918;73.504;2023-07-20T06:21:09;4.50;;;1.52;;
59486;SDS011;45298;54.918;73.504;2023-07-20T06:23:39;2.78;;;1.60;;
59486;SDS011;45298;54.918;73.504;2023-07-20T06:26:07;6.60;;;1.70;;
59486;SDS011;45298;54.918;73.504;2023-07-20T06:28:36;5.13;;;1.75;;
59486;SDS011;45298;54.918;73.504;2023-07-20T06:31:05;3.15;;;1.50;;
59486;SDS011;45298;54.918;73.504;2023-07-20T06:33:34;9.05;;;2.05;;
59486;SDS011;45298;54.918;73.504;2023-07-20T06:36:03;2.47;;;1.40;;
59486;SDS011;45298;54.918;73.504;2023-07-20T06:38:32;3.13;;;1.25;;
59486;SDS011;45298;54.918;73.504;2023-07-20T06:41:01;7.45;;;1.60;;
59486;SDS011;45298;54.918;73.504;2023-07-20T06:43:33;4.78;;;1.55;;
59486;SDS011;45298;54.918;73.504;2023-07-20T06:46:05;3.95;;;1.60;;
59486;SDS011;45298;54.918;73.504;2023-07-20T06:48:34;4.68;;;1.58;;
59486;SDS011;45298;54.918;73.504;2023-07-20T06:51:23;6.50;;;1.40;;
59486;SDS011;45298;54.918;73.504;2023-07-20T06:53:53;3.17;;;1.38;;
59486;SDS011;45298;54.918;73.504;2023-07-20T06:56:22;2.95;;;1.77;;
59486;SDS011;45298;54.918;73.504;2023-07-20T06:58:53;6.50;;;1.45;;
59486;SDS011;45298;54.918;73.504;2023-07-20T07:01:22;7.15;;;1.70;;
59486;SDS011;45298;54.918;73.504;2023-07-20T07:03:52;4.05;;;1.40;;
59486;SDS011;45298;54.918;73.504;2023-07-20T07:06:25;5.15;;;1.55;;
59486;SDS011;45298;54.918;73.504;2023-07-20T07:08:56;3.17;;;1.65;;
59486;SDS011;45298;54.918;73.504;2023-07-20T07:11:25;2.35;;;1.60;;
59486;SDS011;45298;54.918;73.504;2023-07-20T07:13:55;3.83;;;1.60;;
59486;SDS011;45298;54.918;73.504;2023-07-20T07:16:24;3.90;;;1.50;;
59486;SDS011;45298;54.918;73.504;2023-07-20T07:18:54;4.32;;;1.33;;
59486;SDS011;45298;54.918;73.504;2023-07-20T07:21:26;4.75;;;1.35;;
59486;SDS011;45298;54.918;73.504;2023-07-20T07:23:55;11.05;;;1.60;;
59486;SDS011;45298;54.918;73.504;2023-07-20T07:26:25;4.65;;;1.40;;
59486;SDS011;45298;54.918;73.504;2023-07-20T07:28:54;4.93;;;1.30;;
59486;SDS011;45298;54.918;73.504;2023-07-20T07:31:24;2.63;;;1.40;;
59486;SDS011;45298;54.918;73.504;2023-07-20T07:33:53;6.25;;;1.40;;
59486;SDS011;45298;54.918;73.504;2023-07-20T07:36:23;3.08;;;1.50;;
59486;SDS011;45298;54.918;73.504;2023-07-20T07:38:53;2.63;;;1.50;;
59486;SDS011;45298;54.918;73.504;2023-07-20T07:41:25;7.43;;;1.50;;
59486;SDS011;45298;54.918;73.504;2023-07-20T07:43:54;3.83;;;1.60;;
59486;SDS011;45298;54.918;73.504;2023-07-20T07:46:23;6.10;;;1.73;;
59486;SDS011;45298;54.918;73.504;2023-07-20T07:48:52;4.72;;;1.70;;
59486;SDS011;45298;54.918;73.504;2023-07-20T07:51:21;5.13;;;1.90;;
59486;SDS011;45298;54.918;73.504;2023-07-20T07:53:50;4.47;;;1.85;;
59486;SDS011;45298;54.918;73.504;2023-07-20T07:56:19;5.35;;;1.63;;
59486;SDS011;45298;54.918;73.504;2023-07-20T07:58:51;3.35;;;1.67;;
59486;SDS011;45298;54.918;73.504;2023-07-20T08:01:21;5.28;;;1.60;;
59486;SDS011;45298;54.918;73.504;2023-07-20T08:03:50;3.85;;;1.60;;
59486;SDS011;45298;54.918;73.504;2023-07-20T08:06:19;5.78;;;1.70;;
59486;SDS011;45298;54.918;73.504;2023-07-20T08:08:49;3.72;;;1.90;;
59486;SDS011;45298;54.918;73.504;2023-07-20T08:11:18;5.90;;;1.80;;
59486;SDS011;45298;54.918;73.504;2023-07-20T08:13:47;2.92;;;1.75;;
59486;SDS011;45298;54.918;73.504;2023-07-20T08:16:16;4.82;;;1.65;;
59486;SDS011;45298;54.918;73.504;2023-07-20T08:18:45;6.70;;;1.70;;
59486;SDS011;45298;54.918;73.504;2023-07-20T08:21:14;6.20;;;1.65;;
59486;SDS011;45298;54.918;73.504;2023-07-20T08:23:43;14.65;;;2.15;;
59486;SDS011;45298;54.918;73.504;2023-07-20T08:26:12;10.10;;;2.15;;
59486;SDS011;45298;54.918;73.504;2023-07-20T08:28:42;6.30;;;2.10;;
59486;SDS011;45298;54.918;73.504;2023-07-20T08:31:12;7.05;;;2.50;;
59486;SDS011;45298;54.918;73.504;2023-07-20T08:33:41;10.50;;;2.80;;
59486;SDS011;45298;54.918;73.504;2023-07-20T08:36:10;4.70;;;2.00;;
59486;SDS011;45298;54.918;73.504;2023-07-20T08:38:39;4.68;;;2.33;;
59486;SDS011;45298;54.918;73.504;2023-07-20T08:41:08;6.55;;;2.28;;
59486;SDS011;45298;54.918;73.504;2023-07-20T08:43:37;22.70;;;5.70;;
59486;SDS011;45298;54.918;73.504;2023-07-20T08:46:11;19.73;;;6.45;;
59486;SDS011;45298;54.918;73.504;2023-07-20T08:48:42;4.82;;;2.42;;
59486;SDS011;45298;54.918;73.504;2023-07-20T08:51:12;4.15;;;2.10;;
59486;SDS011;45298;54.918;73.504;2023-07-20T08:53:45;3.92;;;2.00;;
59486;SDS011;45298;54.918;73.504;2023-07-20T08:56:16;3.05;;;1.83;;
59486;SDS011;45298;54.918;73.504;2023-07-20T08:58:45;5.63;;;2.00;;
59486;SDS011;45298;54.918;73.504;2023-07-20T09:01:15;3.70;;;2.13;;
59486;SDS011;45298;54.918;73.504;2023-07-20T09:03:47;5.13;;;1.85;;
59486;SDS011;45298;54.918;73.504;2023-07-20T09:06:17;8.90;;;4.88;;
59486;SDS011;45298;54.918;73.504;2023-07-20T09:08:47;3.38;;;1.85;;
59486;SDS011;45298;54.918;73.504;2023-07-20T09:11:18;4.88;;;1.75;;
59486;SDS011;45298;54.918;73.504;2023-07-20T09:13:47;6.32;;;2.00;;
59486;SDS011;45298;54.918;73.504;2023-07-20T09:16:19;4.65;;;1.60;;
59486;SDS011;45298;54.918;73.504;2023-07-20T09:18:51;5.55;;;1.70;;
59486;SDS011;45298;54.918;73.504;2023-07-20T09:21:29;2.85;;;1.80;;
59486;SDS011;45298;54.918;73.504;2023-07-20T09:23:59;2.72;;;1.80;;
59486;SDS011;45298;54.918;73.504;2023-07-20T09:26:28;5.80;;;2.10;;
59486;SDS011;45298;54.918;73.504;2023-07-20T09:28:57;3.35;;;2.00;;
59486;SDS011;45298;54.918;73.504;2023-07-20T09:31:28;2.58;;;2.10;;
59486;SDS011;45298;54.918;73.504;2023-07-20T09:34:07;6.47;;;2.13;;
59486;SDS011;45298;54.918;73.504;2023-07-20T09:36:36;3.97;;;2.20;;
59486;SDS011;45298;54.918;73.504;2023-07-20T09:39:09;6.65;;;2.88;;
59486;SDS011;45298;54.918;73.504;2023-07-20T09:41:39;6.97;;;4.25;;
59486;SDS011;45298;54.918;73.504;2023-07-20T09:44:16;8.18;;;2.65;;
59486;SDS011;45298;54.918;73.504;2023-07-20T09:46:49;7.10;;;2.05;;
59486;SDS011;45298;54.918;73.504;2023-07-20T09:49:21;3.78;;;2.20;;
59486;SDS011;45298;54.918;73.504;2023-07-20T09:51:54;5.53;;;2.15;;
59486;SDS011;45298;54.918;73.504;2023-07-20T09:54:26;4.82;;;2.00;;
59486;SDS011;45298;54.918;73.504;2023-07-20T09:56:56;8.82;;;2.50;;
59486;SDS011;45298;54.918;73.504;2023-07-20T09:59:26;4.40;;;2.35;;
59486;SDS011;45298;54.918;73.504;2023-07-20T10:01:58;5.07;;;2.08;;
59486;SDS011;45298;54.918;73.504;2023-07-20T10:04:31;2.93;;;1.90;;
59486;SDS011;45298;54.918;73.504;2023-07-20T10:07:03;4.35;;;2.00;;
59486;SDS011;45298;54.918;73.504;2023-07-20T10:09:38;3.78;;;2.15;;
59486;SDS011;45298;54.918;73.504;2023-07-20T10:12:13;4.15;;;2.10;;
59486;SDS011;45298;54.918;73.504;2023-07-20T10:14:47;3.55;;;2.00;;
59486;SDS011;45298;54.918;73.504;2023-07-20T10:17:29;2.92;;;1.95;;
59486;SDS011;45298;54.918;73.504;2023-07-20T10:19:58;8.98;;;2.58;;
59486;SDS011;45298;54.918;73.504;2023-07-20T10:22:35;8.18;;;4.32;;
59486;SDS011;45298;54.918;73.504;2023-07-20T10:25:08;5.72;;;2.40;;
59486;SDS011;45298;54.918;73.504;2023-07-20T10:27:38;5.95;;;2.72;;
59486;SDS011;45298;54.918;73.504;2023-07-20T10:30:08;4.32;;;3.40;;
59486;SDS011;45298;54.918;73.504;2023-07-20T10:32:38;10.00;;;6.70;;
59486;SDS011;45298;54.918;73.504;2023-07-20T10:35:13;7.38;;;5.47;;
59486;SDS011;45298;54.918;73.504;2023-07-20T10:37:53;4.20;;;2.63;;
59486;SDS011;45298;54.918;73.504;2023-07-20T10:40:25;5.32;;;1.75;;
59486;SDS011;45298;54.918;73.504;2023-07-20T10:43:04;11.63;;;7.07;;
59486;SDS011;45298;54.918;73.504;2023-07-20T10:48:13;5.65;;;1.63;;
59486;SDS011;45298;54.918;73.504;2023-07-20T10:50:43;6.25;;;2.92;;
59486;SDS011;45298;54.918;73.504;2023-07-20T10:53:16;4.32;;;1.98;;
59486;SDS011;45298;54.918;73.504;2023-07-20T10:55:46;4.78;;;2.10;;
59486;SDS011;45298;54.918;73.504;2023-07-20T10:58:18;4.28;;;2.20;;
59486;SDS011;45298;54.918;73.504;2023-07-20T11:00:57;6.60;;;2.63;;
59486;SDS011;45298;54.918;73.504;2023-07-20T11:03:34;4.75;;;2.22;;
59486;SDS011;45298;54.918;73.504;2023-07-20T11:11:39;4.75;;;2.00;;
59486;SDS011;45298;54.918;73.504;2023-07-20T11:14:23;4.63;;;2.03;;
59486;SDS011;45298;54.918;73.504;2023-07-20T11:16:53;4.75;;;2.17;;
59486;SDS011;45298;54.918;73.504;2023-07-20T11:19:24;5.00;;;2.35;;
59486;SDS011;45298;54.918;73.504;2023-07-20T11:21:57;4.47;;;2.10;;
59486;SDS011;45298;54.918;73.504;2023-07-20T11:24:31;6.80;;;1.60;;
59486;SDS011;45298;54.918;73.504;2023-07-20T11:27:00;2.33;;;1.60;;
59486;SDS011;45298;54.918;73.504;2023-07-20T11:29:29;2.97;;;2.10;;
59486;SDS011;45298;54.918;73.504;2023-07-20T11:32:01;4.70;;;1.67;;
59486;SDS011;45298;54.918;73.504;2023-07-20T11:34:33;2.97;;;1.60;;
59486;SDS011;45298;54.918;73.504;2023-07-20T11:37:03;2.83;;;1.70;;
59486;SDS011;45298;54.918;73.504;2023-07-20T11:39:37;4.88;;;2.05;;
59486;SDS011;45298;54.918;73.504;2023-07-20T11:42:07;2.13;;;1.40;;
59486;SDS011;45298;54.918;73.504;2023-07-20T11:44:37;2.40;;;1.70;;
59486;SDS011;45298;54.918;73.504;2023-07-20T11:47:10;5.20;;;2.30;;
59486;SDS011;45298;54.918;73.504;2023-07-20T11:49:43;5.82;;;3.70;;
59486;SDS011;45298;54.918;73.504;2023-07-20T11:52:17;4.70;;;2.95;;
59486;SDS011;45298;54.918;73.504;2023-07-20T11:54:47;16.15;;;3.05;;
59486;SDS011;45298;54.918;73.504;2023-07-20T11:57:17;4.75;;;2.55;;
59486;SDS011;45298;54.918;73.504;2023-07-20T11:59:56;7.47;;;4.95;;
59486;SDS011;45298;54.918;73.504;2023-07-20T12:02:27;3.38;;;2.55;;
59486;SDS011;45298;54.918;73.504;2023-07-20T12:04:57;4.25;;;2.13;;
59486;SDS011;45298;54.918;73.504;2023-07-20T12:07:27;6.80;;;1.73;;
59486;SDS011;45298;54.918;73.504;2023-07-20T12:10:05;7.65;;;1.92;;
59486;SDS011;45298;54.918;73.504;2023-07-20T12:12:41;3.72;;;2.60;;
59486;SDS011;45298;54.918;73.504;2023-07-20T12:15:21;9.13;;;3.42;;
59486;SDS011;45298;54.918;73.504;2023-07-20T12:17:52;6.70;;;4.57;;
59486;SDS011;45298;54.918;73.504;2023-07-20T12:20:26;9.63;;;3.65;;
59486;SDS011;45298;54.918;73.504;2023-07-20T12:25:37;6.63;;;3.00;;
59486;SDS011;45298;54.918;73.504;2023-07-20T12:28:08;16.77;;;10.63;;
59486;SDS011;45298;54.918;73.504;2023-07-20T12:30:44;4.95;;;2.50;;
59486;SDS011;45298;54.918;73.504;2023-07-20T12:33:14;4.95;;;3.80;;
59486;SDS011;45298;54.918;73.504;2023-07-20T12:35:44;5.00;;;2.58;;
59486;SDS011;45298;54.918;73.504;2023-07-20T12:38:13;4.97;;;2.95;;
59486;SDS011;45298;54.918;73.504;2023-07-20T12:40:43;7.70;;;2.80;;
59486;SDS011;45298;54.918;73.504;2023-07-20T12:43:13;11.55;;;2.65;;
59486;SDS011;45298;54.918;73.504;2023-07-20T12:45:42;11.18;;;2.95;;
59486;SDS011;45298;54.918;73.504;2023-07-20T12:48:11;6.82;;;2.53;;
59486;SDS011;45298;54.918;73.504;2023-07-20T12:50:41;10.45;;;6.05;;
59486;SDS011;45298;54.918;73.504;2023-07-20T12:53:10;10.65;;;2.55;;
59486;SDS011;45298;54.918;73.504;2023-07-20T12:55:43;9.75;;;4.22;;
59486;SDS011;45298;54.918;73.504;2023-07-20T12:58:12;14.77;;;6.57;;
59486;SDS011;45298;54.918;73.504;2023-07-20T13:00:41;4.28;;;2.65;;
59486;SDS011;45298;54.918;73.504;2023-07-20T13:03:11;18.38;;;14.27;;
59486;SDS011;45298;54.918;73.504;2023-07-20T13:05:59;8.50;;;5.45;;
59486;SDS011;45298;54.918;73.504;2023-07-20T13:08:30;7.07;;;2.70;;
59486;SDS011;45298;54.918;73.504;2023-07-20T13:10:59;7.53;;;5.32;;
59486;SDS011;45298;54.918;73.504;2023-07-20T13:13:29;11.98;;;7.32;;
59486;SDS011;45298;54.918;73.504;2023-07-20T13:15:59;14.07;;;8.40;;
59486;SDS011;45298;54.918;73.504;2023-07-20T13:18:28;8.65;;;4.00;;
59486;SDS011;45298;54.918;73.504;2023-07-20T13:20:57;7.72;;;2.70;;
59486;SDS011;45298;54.918;73.504;2023-07-20T13:23:29;10.25;;;5.43;;
59486;SDS011;45298;54.918;73.504;2023-07-20T13:25:57;12.82;;;8.02;;
59486;SDS011;45298;54.918;73.504;2023-07-20T13:28:26;5.10;;;3.55;;
59486;SDS011;45298;54.918;73.504;2023-07-20T13:30:56;6.78;;;2.70;;
59486;SDS011;45298;54.918;73.504;2023-07-20T13:33:26;12.23;;;8.13;;
59486;SDS011;45298;54.918;73.504;2023-07-20T13:35:56;7.15;;;3.40;;
59486;SDS011;45298;54.918;73.504;2023-07-20T13:38:25;19.38;;;12.15;;
59486;SDS011;45298;54.918;73.504;2023-07-20T13:40:56;12.65;;;2.50;;
59486;SDS011;45298;54.918;73.504;2023-07-20T13:43:25;22.83;;;15.88;;
59486;SDS011;45298;54.918;73.504;2023-07-20T13:45:54;15.00;;;8.60;;
59486;SDS011;45298;54.918;73.504;2023-07-20T13:48:25;9.35;;;3.17;;
59486;SDS011;45298;54.918;73.504;2023-07-20T13:50:55;14.23;;;6.70;;
59486;SDS011;45298;54.918;73.504;2023-07-20T13:53:27;13.00;;;7.53;;
59486;SDS011;45298;54.918;73.504;2023-07-20T13:56:01;15.30;;;11.23;;
59486;SDS011;45298;54.918;73.504;2023-07-20T13:58:37;18.70;;;13.07;;
59486;SDS011;45298;54.918;73.504;2023-07-20T14:01:07;7.63;;;3.53;;
59486;SDS011;45298;54.918;73.504;2023-07-20T14:03:36;10.48;;;5.22;;
59486;SDS011;45298;54.918;73.504;2023-07-20T14:06:05;8.20;;;3.28;;
59486;SDS011;45298;54.918;73.504;2023-07-20T14:08:39;29.27;;;10.07;;
59486;SDS011;45298;54.918;73.504;2023-07-20T14:11:09;51.10;;;21.23;;
59486;SDS011;45298;54.918;73.504;2023-07-20T14:13:51;14.55;;;4.20;;
59486;SDS011;45298;54.918;73.504;2023-07-20T14:16:22;6.45;;;2.78;;
59486;SDS011;45298;54.918;73.504;2023-07-20T14:18:52;9.50;;;3.10;;
59486;SDS011;45298;54.918;73.504;2023-07-20T14:21:23;9.05;;;6.43;;
59486;SDS011;45298;54.918;73.504;2023-07-20T14:23:52;17.52;;;5.78;;
59486;SDS011;45298;54.918;73.504;2023-07-20T14:26:21;19.55;;;6.00;;
59486;SDS011;45298;54.918;73.504;2023-07-20T14:28:50;15.13;;;7.68;;
59486;SDS011;45298;54.918;73.504;2023-07-20T14:31:20;12.70;;;7.07;;
59486;SDS011;45298;54.918;73.504;2023-07-20T14:33:49;14.40;;;8.85;;
59486;SDS011;45298;54.918;73.504;2023-07-20T14:36:19;8.20;;;4.07;;
59486;SDS011;45298;54.918;73.504;2023-07-20T14:38:50;12.30;;;5.78;;
59486;SDS011;45298;54.918;73.504;2023-07-20T14:41:19;29.02;;;5.65;;
59486;SDS011;45298;54.918;73.504;2023-07-20T14:43:48;20.40;;;3.95;;
59486;SDS011;45298;54.918;73.504;2023-07-20T14:46:18;13.32;;;4.03;;
59486;SDS011;45298;54.918;73.504;2023-07-20T14:48:48;18.92;;;8.32;;
59486;SDS011;45298;54.918;73.504;2023-07-20T14:51:17;21.23;;;9.80;;
59486;SDS011;45298;54.918;73.504;2023-07-20T14:53:46;15.27;;;4.50;;
59486;SDS011;45298;54.918;73.504;2023-07-20T14:56:15;71.05;;;4.93;;
59486;SDS011;45298;54.918;73.504;2023-07-20T14:58:44;31.92;;;4.97;;
59486;SDS011;45298;54.918;73.504;2023-07-20T15:01:14;22.00;;;3.65;;
59486;SDS011;45298;54.918;73.504;2023-07-20T15:04:01;20.02;;;7.85;;
59486;SDS011;45298;54.918;73.504;2023-07-20T15:06:42;11.63;;;4.47;;
59486;SDS011;45298;54.918;73.504;2023-07-20T15:09:25;12.55;;;5.30;;
59486;SDS011;45298;54.918;73.504;2023-07-20T15:11:55;13.90;;;7.78;;
59486;SDS011;45298;54.918;73.504;2023-07-20T15:14:35;13.05;;;4.53;;
59486;SDS011;45298;54.918;73.504;2023-07-20T15:17:21;8.88;;;4.80;;
59486;SDS011;45298;54.918;73.504;2023-07-20T15:20:06;10.98;;;5.43;;